Terminal Aerodrome Forecast
Issued by NWS

Current Version | Previous Version | Text Only | Print | Product List | Glossary On
Versions: 1 2 3 4 5 6 7 8 9 10 11 12 13 14 15 16 17 18 19 20 21 22 23 24
253
FTUS44 KOUN 100521
TAFLAW
TAF
KLAW 100521Z 1006/1106 14010KT P6SM OVC035
     FM100900 15011KT P6SM SCT035 BKN200
     FM101800 17016G24KT P6SM SCT035
     FM110000 16014G18KT P6SM SCT050 SCT200=

USA.gov is the U.S. government's official web portal to all federal, state and local government web resources and services.